Time;durP1;ratioP1;P1;durP2;ratioP2;P2;SDS_P1;SDS_P2;PMS_P1;PMS_P2;Temp;Humidity;BMP_temperature;BMP_pressure;BME280_temperature;BME280_humidity;BME280_pressure;Samples;Min_cycle;Max_cycle;Signal;HPM_P1;HPM_P2
2022/06/24 00:01:27;;;;;;;2.80;0.93;;;19.70;97.20;;;;;;4996629;28;20530;-65
2022/06/24 00:03:54;;;;;;;3.87;0.80;;;19.70;96.80;;;;;;4995780;28;20574;-64
2022/06/24 00:06:21;;;;;;;2.17;0.80;;;19.70;97.10;;;;;;4996299;28;20543;-64
2022/06/24 00:08:59;;;;;;;4.87;0.90;;;19.70;97.80;;;;;;4995800;28;20819;-65
2022/06/24 00:11:29;;;;;;;3.20;0.77;;;19.80;98.00;;;;;;4996533;28;20510;-64
2022/06/24 00:14:07;;;;;;;4.40;0.70;;;19.80;98.20;;;;;;4994021;28;20546;-64
2022/06/24 00:16:53;;;;;;;2.10;0.80;;;19.80;97.90;;;;;;4996579;28;20442;-64
2022/06/24 00:19:20;;;;;;;3.13;0.90;;;19.80;96.00;;;;;;4994956;28;20893;-65
2022/06/24 00:22:01;;;;;;;1.80;1.00;;;19.80;96.50;;;;;;4996164;28;20440;-65
2022/06/24 00:24:28;;;;;;;2.10;0.80;;;19.80;96.90;;;;;;4994871;28;20778;-65
2022/06/24 00:26:56;;;;;;;2.77;0.70;;;19.80;97.70;;;;;;4995968;28;20519;-65
2022/06/24 00:29:25;;;;;;;3.23;1.00;;;19.90;97.90;;;;;;4994872;28;20893;-64
2022/06/24 00:32:06;;;;;;;2.13;0.90;;;19.80;96.30;;;;;;4995852;28;20546;-65
2022/06/24 00:34:34;;;;;;;5.47;1.63;;;19.80;95.90;;;;;;4994422;28;20570;-65
2022/06/24 00:37:24;;;;;;;2.97;0.83;;;19.90;96.10;;;;;;4995943;28;20483;-65
2022/06/24 00:39:52;;;;;;;3.50;0.90;;;19.90;96.00;;;;;;4995058;28;20439;-65
2022/06/24 00:42:21;;;;;;;2.90;1.07;;;19.90;96.20;;;;;;4995577;28;20526;-65
2022/06/24 00:45:01;;;;;;;3.20;0.80;;;19.90;95.50;;;;;;4994876;28;20990;-65
2022/06/24 00:47:30;;;;;;;5.53;1.47;;;19.80;94.80;;;;;;4995635;28;20479;-65
2022/06/24 00:49:59;;;;;;;2.20;0.80;;;19.80;94.40;;;;;;4992746;28;20510;-64
2022/06/24 00:52:26;;;;;;;4.10;0.80;;;19.60;94.60;;;;;;4995311;28;20853;-64
2022/06/24 00:54:53;;;;;;;2.40;0.80;;;19.50;95.40;;;;;;4994052;28;20510;-65
2022/06/24 00:57:22;;;;;;;2.60;0.90;;;19.40;95.20;;;;;;4994652;28;20510;-64
2022/06/24 00:59:49;;;;;;;2.00;0.60;;;19.40;95.10;;;;;;4995465;28;20522;-66
2022/06/24 01:02:17;;;;;;;2.23;0.70;;;19.40;95.00;;;;;;4994091;28;20514;-65
2022/06/24 01:04:44;;;;;;;3.57;1.10;;;19.40;94.90;;;;;;4995556;28;20444;-64
2022/06/24 01:07:11;;;;;;;2.47;0.80;;;19.30;95.30;;;;;;4993653;28;20443;-70
2022/06/24 01:09:38;;;;;;;4.93;1.20;;;19.40;95.60;;;;;;4995437;28;20443;-65
2022/06/24 01:12:06;;;;;;;3.30;1.00;;;19.40;95.80;;;;;;4995176;28;20471;-67
2022/06/24 01:14:34;;;;;;;2.17;0.90;;;19.50;95.90;;;;;;4994485;28;20491;-64
2022/06/24 01:17:02;;;;;;;2.87;1.10;;;19.50;95.60;;;;;;4994664;28;20526;-64
2022/06/24 01:19:29;;;;;;;2.30;0.83;;;19.50;95.90;;;;;;4992927;28;20438;-65
2022/06/24 01:21:57;;;;;;;3.93;0.90;;;19.60;95.60;;;;;;4994230;28;20456;-64
2022/06/24 01:24:26;;;;;;;4.33;1.07;;;19.60;95.20;;;;;;4995103;28;20527;-65
2022/06/24 01:26:55;;;;;;;2.87;0.90;;;19.60;94.30;;;;;;4994363;28;20444;-65
2022/06/24 01:29:22;;;;;;;2.37;0.70;;;19.60;94.10;;;;;;4994765;28;20567;-65
2022/06/24 01:31:52;;;;;;;3.60;0.90;;;19.70;94.30;;;;;;4994192;28;20845;-65
2022/06/24 01:34:20;;;;;;;2.93;1.00;;;19.60;94.60;;;;;;4994599;28;20978;-64
2022/06/24 01:36:48;;;;;;;5.00;1.27;;;19.60;94.90;;;;;;4991988;28;20440;-65
2022/06/24 01:39:16;;;;;;;4.57;0.87;;;19.70;95.10;;;;;;4993324;28;20519;-65
2022/06/24 01:41:43;;;;;;;4.67;0.83;;;19.70;95.10;;;;;;4994605;28;20522;-65
2022/06/24 01:44:10;;;;;;;5.47;1.53;;;19.70;94.70;;;;;;4994230;28;20981;-64
2022/06/24 01:46:37;;;;;;;2.30;0.90;;;19.70;94.60;;;;;;4993787;28;20521;-65
2022/06/24 01:49:04;;;;;;;2.33;0.97;;;19.70;95.00;;;;;;4994295;28;20471;-65
2022/06/24 01:51:33;;;;;;;4.27;1.03;;;19.70;94.90;;;;;;4994707;28;20515;-64
2022/06/24 01:54:00;;;;;;;4.20;1.40;;;19.70;95.00;;;;;;4993722;28;20467;-65
2022/06/24 01:56:29;;;;;;;3.20;1.00;;;19.80;95.50;;;;;;4994496;28;20542;-64
2022/06/24 01:58:56;;;;;;;2.13;0.80;;;19.80;96.20;;;;;;4993660;28;20435;-65
2022/06/24 02:01:23;;;;;;;4.13;1.00;;;19.80;95.70;;;;;;4993889;28;20543;-64
2022/06/24 02:03:51;;;;;;;1.90;0.83;;;19.80;95.20;;;;;;4993833;28;20932;-64
2022/06/24 02:06:18;;;;;;;2.50;1.00;;;19.80;95.40;;;;;;4994414;28;20935;-65
2022/06/24 02:08:45;;;;;;;3.13;1.00;;;19.80;96.00;;;;;;4992943;28;20452;-65
2022/06/24 02:14:00;;;;;;;3.50;1.13;;;19.80;97.00;;;;;;4993566;28;20804;-65
2022/06/24 02:16:27;;;;;;;2.50;1.00;;;19.70;97.20;;;;;;4994117;28;20843;-65
2022/06/24 02:18:56;;;;;;;2.67;0.80;;;19.70;97.60;;;;;;4992896;28;20456;-64
2022/06/24 02:21:24;;;;;;;3.40;1.00;;;19.80;98.30;;;;;;4994146;28;20526;-64
2022/06/24 02:23:51;;;;;;;2.30;0.93;;;19.80;98.20;;;;;;4993045;28;20750;-65
2022/06/24 02:26:19;;;;;;;5.50;1.27;;;19.70;98.70;;;;;;4994027;28;20518;-65
2022/06/24 02:28:46;;;;;;;2.40;0.77;;;19.70;98.80;;;;;;4992823;28;20893;-65
2022/06/24 02:31:14;;;;;;;3.83;1.20;;;19.70;98.40;;;;;;4992084;28;20530;-65
2022/06/24 02:33:42;;;;;;;2.10;0.80;;;19.70;98.50;;;;;;4974269;28;20827;-65
2022/06/24 02:36:09;;;;;;;1.80;0.70;;;19.70;98.50;;;;;;4984402;28;20562;-65
2022/06/24 02:38:36;;;;;;;3.10;0.80;;;19.70;98.60;;;;;;4993429;28;20527;-65
2022/06/24 02:41:04;;;;;;;2.40;1.10;;;19.80;98.90;;;;;;4991831;28;20432;-65
2022/06/24 02:43:32;;;;;;;3.60;0.97;;;19.80;99.00;;;;;;4993727;28;20463;-65
2022/06/24 02:46:00;;;;;;;3.40;1.03;;;19.80;99.20;;;;;;4992886;28;20514;-65
2022/06/24 02:48:30;;;;;;;3.67;1.73;;;19.80;99.20;;;;;;4993635;28;20884;-65
2022/06/24 02:50:58;;;;;;;8.43;1.10;;;19.80;99.40;;;;;;4992545;28;20435;-64
2022/06/24 02:53:26;;;;;;;2.13;0.90;;;19.80;99.20;;;;;;4993340;28;21006;-65
2022/06/24 02:55:54;;;;;;;4.23;1.10;;;19.70;99.40;;;;;;4992642;28;20917;-65
2022/06/24 02:58:22;;;;;;;2.13;0.90;;;19.70;99.60;;;;;;4993400;28;20482;-65
2022/06/24 03:00:49;;;;;;;3.43;1.50;;;19.70;99.70;;;;;;4992050;28;20994;-65
2022/06/24 03:03:19;;;;;;;6.10;1.30;;;19.70;99.80;;;;;;4991349;28;20969;-65
2022/06/24 03:05:47;;;;;;;4.00;1.37;;;19.70;99.70;;;;;;4992315;28;20518;-65
2022/06/24 03:08:16;;;;;;;4.00;0.90;;;19.70;99.50;;;;;;4993130;28;20471;-64
2022/06/24 03:10:44;;;;;;;4.87;1.13;;;19.70;99.60;;;;;;4992144;28;20522;-65
2022/06/24 03:13:12;;;;;;;2.57;1.00;;;19.70;99.70;;;;;;4995056;28;20482;-66
2022/06/24 03:15:39;;;;;;;2.90;1.13;;;19.70;99.90;;;;;;4996568;28;20490;-65
2022/06/24 03:18:07;;;;;;;8.27;1.13;;;19.70;99.90;;;;;;4996931;28;20951;-64
2022/06/24 03:20:34;;;;;;;5.33;1.30;;;19.60;99.90;;;;;;4996777;28;20518;-65
2022/06/24 03:23:02;;;;;;;4.37;1.53;;;19.60;99.90;;;;;;4997134;28;20522;-65
2022/06/24 03:25:29;;;;;;;2.80;0.90;;;19.50;99.90;;;;;;4996545;28;20475;-65
2022/06/24 03:27:56;;;;;;;4.50;1.63;;;19.50;99.90;;;;;;4997187;28;20835;-64
2022/06/24 03:30:23;;;;;;;3.77;1.07;;;19.50;99.90;;;;;;4996152;28;20530;-65
2022/06/24 03:32:50;;;;;;;7.00;1.40;;;19.50;99.90;;;;;;4997113;28;20530;-65
2022/06/24 03:35:17;;;;;;;3.57;1.17;;;19.50;99.90;;;;;;4995832;28;20566;-65
2022/06/24 03:37:44;;;;;;;4.73;1.27;;;19.50;99.90;;;;;;4996635;28;20474;-65
2022/06/24 03:40:13;;;;;;;5.00;1.30;;;19.40;99.90;;;;;;4996178;28;20962;-65
2022/06/24 03:42:40;;;;;;;4.47;1.30;;;19.40;99.90;;;;;;4997100;28;20837;-65
2022/06/24 03:45:08;;;;;;;4.80;1.67;;;19.40;99.90;;;;;;4996874;28;20985;-66
2022/06/24 03:47:34;;;;;;;2.03;0.90;;;19.40;99.90;;;;;;4996730;28;20526;-65
2022/06/24 03:50:01;;;;;;;4.30;1.13;;;19.50;99.90;;;;;;4996126;28;20526;-65
2022/06/24 03:52:28;;;;;;;4.07;1.30;;;19.60;99.90;;;;;;4996613;28;20534;-65
2022/06/24 03:54:55;;;;;;;3.53;1.30;;;19.60;99.90;;;;;;4995950;28;20566;-65
2022/06/24 03:57:23;;;;;;;3.13;0.83;;;19.60;99.90;;;;;;4996455;28;20686;-65
2022/06/24 03:59:50;;;;;;;4.60;1.40;;;19.60;99.90;;;;;;4996226;28;20444;-68
2022/06/24 04:02:23;;;;;;;4.30;1.50;;;19.60;99.90;;;;;;4996629;28;20534;-65
2022/06/24 04:04:50;;;;;;;2.43;1.00;;;19.60;99.90;;;;;;4996208;28;20474;-65
2022/06/24 04:07:17;;;;;;;7.43;1.37;;;19.60;99.90;;;;;;4995167;28;20887;-65
2022/06/24 04:09:44;;;;;;;3.90;1.10;;;19.60;99.90;;;;;;4994273;28;20515;-65
2022/06/24 04:12:12;;;;;;;3.53;1.20;;;19.60;99.90;;;;;;4995878;28;20538;-65
2022/06/24 04:17:25;;;;;;;3.60;1.03;;;19.70;99.90;;;;;;4996212;28;20447;-65
2022/06/24 04:19:53;;;;;;;3.73;1.20;;;19.70;99.90;;;;;;4995694;28;20527;-66
2022/06/24 04:22:20;;;;;;;2.17;1.40;;;19.70;99.90;;;;;;4995782;28;20567;-65
2022/06/24 04:24:47;;;;;;;3.97;1.73;;;19.80;99.90;;;;;;4995539;28;20542;-65
2022/06/24 04:27:14;;;;;;;4.10;1.47;;;19.70;99.90;;;;;;4994203;28;20440;-65
2022/06/24 04:29:43;;;;;;;7.90;1.50;;;19.70;99.90;;;;;;4995515;28;20510;-65
2022/06/24 04:32:10;;;;;;;3.20;1.50;;;19.70;99.90;;;;;;4995389;28;20515;-65
2022/06/24 04:34:38;;;;;;;4.37;1.10;;;19.80;99.90;;;;;;4995875;28;20440;-67
2022/06/24 04:37:06;;;;;;;3.27;1.60;;;19.80;99.90;;;;;;4993916;28;20511;-65
2022/06/24 04:39:33;;;;;;;3.10;1.33;;;19.80;99.90;;;;;;4996024;28;20436;-65
2022/06/24 04:42:00;;;;;;;4.40;1.43;;;19.80;99.90;;;;;;4994884;28;20839;-65
2022/06/24 04:44:27;;;;;;;3.40;1.30;;;19.90;99.90;;;;;;4994514;28;20502;-65
2022/06/24 04:46:55;;;;;;;4.57;1.73;;;19.90;99.90;;;;;;4994708;28;20479;-65
2022/06/24 04:49:22;;;;;;;3.73;1.40;;;19.90;99.90;;;;;;4995906;28;20479;-65
2022/06/24 04:51:49;;;;;;;2.43;1.20;;;19.90;99.90;;;;;;4995256;28;20443;-64
2022/06/24 04:54:16;;;;;;;7.20;2.00;;;20.00;99.90;;;;;;4995373;28;20862;-65
2022/06/24 04:56:43;;;;;;;2.67;1.30;;;20.00;99.90;;;;;;4995080;28;20491;-66
2022/06/24 04:59:10;;;;;;;7.00;1.50;;;20.00;99.90;;;;;;4995816;28;20538;-65
2022/06/24 05:01:37;;;;;;;8.03;1.60;;;20.00;99.90;;;;;;4994618;28;20458;-65
2022/06/24 05:04:06;;;;;;;3.33;1.63;;;20.00;99.90;;;;;;4994717;28;20534;-66
2022/06/24 05:06:33;;;;;;;5.07;1.90;;;20.00;99.90;;;;;;4994246;28;20440;-65
2022/06/24 05:09:00;;;;;;;4.67;1.50;;;20.10;99.90;;;;;;4995821;28;20519;-65
2022/06/24 05:11:26;;;;;;;7.77;1.40;;;20.10;99.90;;;;;;4994642;28;20526;-65
2022/06/24 05:13:53;;;;;;;5.57;1.60;;;20.10;99.90;;;;;;4995528;28;20531;-65
2022/06/24 05:16:21;;;;;;;5.70;1.70;;;20.20;99.90;;;;;;4994518;28;20579;-65
2022/06/24 05:18:47;;;;;;;5.00;1.60;;;20.30;99.90;;;;;;4995451;28;20531;-65
2022/06/24 05:21:16;;;;;;;7.60;1.97;;;20.30;99.90;;;;;;4994244;28;20519;-65
2022/06/24 05:23:42;;;;;;;9.20;1.90;;;20.30;99.90;;;;;;4994707;28;20531;-66
2022/06/24 05:26:09;;;;;;;3.67;1.60;;;20.30;99.90;;;;;;4995420;28;20530;-65
2022/06/24 05:28:36;;;;;;;2.63;1.40;;;20.30;99.90;;;;;;4994795;28;20554;-66
2022/06/24 05:31:03;;;;;;;3.30;1.33;;;20.40;99.90;;;;;;4993746;28;20515;-65
2022/06/24 05:33:33;;;;;;;5.40;1.57;;;20.50;99.90;;;;;;4995120;28;20440;-65
2022/06/24 05:36:00;;;;;;;4.17;1.50;;;20.60;99.90;;;;;;4993565;28;20869;-65
2022/06/24 05:38:28;;;;;;;4.70;1.80;;;20.70;99.90;;;;;;4994682;28;20530;-65
2022/06/24 05:40:55;;;;;;;3.63;1.13;;;20.80;99.90;;;;;;4994048;28;20440;-65
2022/06/24 05:43:22;;;;;;;4.60;1.40;;;21.00;99.90;;;;;;4995008;28;20546;-65
2022/06/24 05:45:49;;;;;;;5.33;1.70;;;21.10;99.90;;;;;;4993487;28;20530;-65
2022/06/24 05:48:16;;;;;;;6.33;1.53;;;21.10;99.50;;;;;;4994778;28;20522;-65
2022/06/24 05:50:43;;;;;;;5.37;1.47;;;21.30;99.60;;;;;;4993916;28;20844;-65
2022/06/24 05:56:00;;;;;;;3.70;1.77;;;21.50;98.50;;;;;;4987890;28;20868;-65
2022/06/24 05:58:28;;;;;;;5.47;1.57;;;21.60;98.20;;;;;;4993634;28;20437;-65
2022/06/24 06:00:55;;;;;;;3.10;1.40;;;21.70;97.80;;;;;;4992736;28;20527;-65
2022/06/24 06:03:23;;;;;;;3.43;1.40;;;21.80;96.60;;;;;;4994460;28;20527;-65
2022/06/24 06:05:50;;;;;;;6.97;2.00;;;21.80;95.80;;;;;;4993579;28;20844;-65
2022/06/24 06:08:17;;;;;;;4.50;1.77;;;21.90;96.30;;;;;;4994240;28;20542;-65
2022/06/24 06:10:44;;;;;;;3.93;1.87;;;21.90;96.20;;;;;;4993611;28;20531;-65
2022/06/24 06:13:13;;;;;;;4.40;1.30;;;21.80;94.70;;;;;;4994309;28;20534;-65
2022/06/24 06:15:42;;;;;;;7.87;2.80;;;21.80;95.00;;;;;;4990886;28;20534;-66
2022/06/24 06:18:09;;;;;;;5.90;2.30;;;21.70;95.20;;;;;;4988881;28;20502;-65
2022/06/24 06:20:36;;;;;;;5.50;1.57;;;21.80;95.50;;;;;;4992424;28;20473;-65
2022/06/24 06:23:04;;;;;;;5.47;1.80;;;21.80;95.50;;;;;;4989164;28;20471;-67
2022/06/24 06:25:31;;;;;;;4.70;1.47;;;21.80;95.00;;;;;;4983844;28;20443;-65
2022/06/24 06:27:58;;;;;;;5.17;1.60;;;21.70;94.80;;;;;;4990206;28;20471;-65
2022/06/24 06:30:28;;;;;;;4.57;1.70;;;21.70;95.20;;;;;;4991646;28;20591;-65
2022/06/24 06:32:55;;;;;;;3.77;2.00;;;21.70;95.50;;;;;;4991662;28;20451;-65
2022/06/24 06:35:22;;;;;;;4.63;1.80;;;21.70;94.90;;;;;;4991282;28;20527;-66
2022/06/24 06:37:49;;;;;;;5.60;1.40;;;21.70;94.90;;;;;;4991045;28;20429;-67
2022/06/24 06:40:17;;;;;;;3.63;1.90;;;21.80;94.90;;;;;;4991562;28;20490;-66
2022/06/24 06:42:46;;;;;;;5.70;1.63;;;21.80;94.40;;;;;;4991718;28;20463;-66
2022/06/24 06:45:13;;;;;;;4.27;1.83;;;21.70;94.30;;;;;;4987232;28;20435;-66
2022/06/24 06:47:41;;;;;;;3.73;1.47;;;21.70;94.80;;;;;;4989091;28;21001;-67
2022/06/24 06:50:09;;;;;;;6.87;1.90;;;21.70;95.00;;;;;;4991626;28;20490;-67
2022/06/24 06:52:36;;;;;;;8.20;2.10;;;21.80;95.10;;;;;;4991367;28;20436;-67
2022/06/24 06:55:04;;;;;;;7.90;1.80;;;21.90;95.40;;;;;;4991684;28;20440;-66
2022/06/24 06:57:31;;;;;;;6.17;2.10;;;22.00;95.70;;;;;;4991571;28;20987;-66
2022/06/24 06:59:58;;;;;;;4.83;2.40;;;22.10;95.70;;;;;;4991595;28;20444;-66
2022/06/24 07:02:25;;;;;;;4.27;1.63;;;22.20;95.30;;;;;;4990710;28;20444;-67
2022/06/24 07:04:54;;;;;;;3.90;1.83;;;22.30;95.50;;;;;;4991614;28;20504;-67
2022/06/24 07:07:21;;;;;;;6.37;1.97;;;22.30;94.40;;;;;;4990968;28;20436;-68
2022/06/24 07:09:48;;;;;;;8.47;1.63;;;22.30;94.40;;;;;;4991534;28;20844;-66
2022/06/24 07:12:15;;;;;;;12.30;2.17;;;22.30;93.20;;;;;;4991103;28;20508;-67
2022/06/24 07:14:43;;;;;;;10.70;3.07;;;22.30;93.70;;;;;;4991111;28;20433;-66
2022/06/24 07:17:10;;;;;;;4.00;1.50;;;22.30;93.90;;;;;;4990797;28;20486;-69
2022/06/24 07:19:37;;;;;;;6.10;2.80;;;22.40;94.20;;;;;;4990133;28;20442;-69
2022/06/24 07:22:06;;;;;;;9.77;2.40;;;22.40;93.10;;;;;;4987470;28;20866;-66
2022/06/24 07:24:33;;;;;;;7.40;2.40;;;22.30;92.80;;;;;;4991218;28;20502;-66
2022/06/24 07:27:03;;;;;;;4.10;1.80;;;22.40;92.90;;;;;;4990965;28;20502;-66
2022/06/24 07:29:33;;;;;;;5.17;2.20;;;22.40;93.10;;;;;;4988690;28;20552;-66
2022/06/24 07:32:00;;;;;;;4.37;1.97;;;22.50;93.40;;;;;;4990686;28;20440;-66
2022/06/24 07:34:27;;;;;;;7.60;1.87;;;22.60;92.80;;;;;;4991279;28;20499;-66
2022/06/24 07:36:55;;;;;;;5.27;2.80;;;22.80;92.90;;;;;;4990847;28;20835;-67
2022/06/24 07:39:23;;;;;;;8.20;2.00;;;22.90;93.30;;;;;;4989276;28;20433;-66
2022/06/24 07:41:53;;;;;;;11.33;2.27;;;23.00;93.10;;;;;;4990175;28;20445;-66
2022/06/24 07:44:20;;;;;;;5.37;2.07;;;23.10;93.10;;;;;;4990442;28;20474;-66
2022/06/24 07:46:47;;;;;;;8.20;2.57;;;23.10;92.50;;;;;;4991098;28;20442;-67
2022/06/24 07:49:14;;;;;;;6.80;2.40;;;23.20;92.70;;;;;;4991809;28;20532;-66
2022/06/24 07:51:41;;;;;;;4.50;2.00;;;23.20;92.30;;;;;;4991431;28;20542;-66
2022/06/24 07:54:08;;;;;;;6.60;2.40;;;23.20;92.50;;;;;;4991764;28;20457;-67
2022/06/24 07:59:21;;;;;;;8.17;2.97;;;23.20;92.20;;;;;;4993680;28;20430;-66
2022/06/24 08:01:49;;;;;;;4.57;2.30;;;23.20;91.70;;;;;;4995200;28;20448;-66
2022/06/24 08:04:16;;;;;;;4.63;2.03;;;23.20;91.80;;;;;;4995104;28;20856;-67
2022/06/24 08:06:46;;;;;;;5.87;2.17;;;23.30;91.30;;;;;;4995139;28;20437;-66
2022/06/24 08:09:13;;;;;;;5.10;2.20;;;23.30;91.10;;;;;;4994701;28;20493;-68
2022/06/24 08:11:42;;;;;;;4.97;2.20;;;23.30;91.30;;;;;;4994697;28;20512;-66
2022/06/24 08:14:09;;;;;;;9.97;2.03;;;23.40;91.20;;;;;;4995142;28;20837;-67
2022/06/24 08:16:36;;;;;;;10.07;2.30;;;23.50;91.00;;;;;;4994471;28;21010;-67
2022/06/24 08:19:03;;;;;;;15.47;3.17;;;23.60;91.50;;;;;;4995030;28;20542;-69
2022/06/24 08:21:30;;;;;;;6.30;2.30;;;23.70;91.50;;;;;;4994757;28;20530;-67
2022/06/24 08:23:58;;;;;;;9.73;2.40;;;23.70;91.90;;;;;;4994771;28;20442;-67
2022/06/24 08:26:25;;;;;;;6.97;2.40;;;23.70;91.40;;;;;;4993599;28;20534;-69
2022/06/24 08:28:54;;;;;;;4.23;1.80;;;23.80;91.00;;;;;;4990630;28;20453;-68
2022/06/24 08:31:21;;;;;;;9.03;2.33;;;23.70;90.80;;;;;;4993483;28;20440;-67
2022/06/24 08:33:49;;;;;;;4.27;2.47;;;23.70;90.70;;;;;;4994069;28;20502;-66
2022/06/24 08:36:16;;;;;;;8.47;2.00;;;23.60;90.10;;;;;;4994016;28;20552;-66
2022/06/24 08:38:43;;;;;;;8.17;3.23;;;23.60;89.00;;;;;;4993837;28;20447;-67
2022/06/24 08:41:12;;;;;;;10.33;2.67;;;23.50;90.10;;;;;;4993736;28;20461;-67
2022/06/24 08:43:40;;;;;;;5.67;2.23;;;23.50;90.00;;;;;;4993796;28;20450;-67
2022/06/24 08:46:09;;;;;;;10.90;3.40;;;23.40;90.00;;;;;;4992818;28;20443;-66
2022/06/24 08:48:38;;;;;;;6.50;2.27;;;23.40;88.20;;;;;;4993995;28;20450;-66
2022/06/24 08:51:07;;;;;;;10.07;2.27;;;23.50;87.80;;;;;;4993775;28;20807;-66
2022/06/24 08:53:36;;;;;;;7.00;2.77;;;23.40;87.70;;;;;;4993774;28;20530;-66
2022/06/24 08:56:03;;;;;;;3.77;2.00;;;23.50;88.10;;;;;;4993194;28;20474;-67
2022/06/24 08:58:30;;;;;;;4.07;1.60;;;23.50;87.00;;;;;;4993531;28;20821;-66
2022/06/24 09:00:57;;;;;;;7.23;2.73;;;23.50;85.60;;;;;;4993420;28;20954;-66
2022/06/24 09:03:25;;;;;;;10.40;2.90;;;23.50;86.60;;;;;;4993776;28;20446;-66
2022/06/24 09:05:53;;;;;;;9.13;2.80;;;23.70;86.70;;;;;;4988029;28;20466;-67
2022/06/24 09:08:21;;;;;;;5.07;2.77;;;23.80;85.60;;;;;;4993628;28;20541;-66
2022/06/24 09:11:06;;;;;;;5.43;2.50;;;23.90;83.80;;;;;;4992449;28;20440;-66
2022/06/24 09:13:41;;;;;;;6.53;2.53;;;24.00;84.40;;;;;;4993506;28;20462;-66
2022/06/24 09:16:09;;;;;;;17.63;2.60;;;24.00;82.70;;;;;;4992358;28;20439;-69
2022/06/24 09:18:38;;;;;;;8.60;3.00;;;24.10;83.10;;;;;;4989607;28;20450;-66
2022/06/24 09:21:05;;;;;;;7.60;2.77;;;24.40;82.20;;;;;;4993154;28;20495;-67
2022/06/24 09:23:32;;;;;;;8.00;2.57;;;24.80;80.90;;;;;;4992943;28;20512;-67
2022/06/24 09:26:01;;;;;;;6.23;2.23;;;25.20;80.70;;;;;;4992817;28;20435;-67
2022/06/24 09:28:29;;;;;;;4.80;1.87;;;25.40;78.50;;;;;;4992555;28;21001;-66
2022/06/24 09:31:04;;;;;;;5.73;2.30;;;25.60;77.40;;;;;;4992007;28;20503;-67
2022/06/24 09:33:38;;;;;;;6.33;1.93;;;25.60;74.90;;;;;;4988351;28;20439;-67
2022/06/24 09:36:08;;;;;;;4.03;1.77;;;25.60;72.10;;;;;;4990312;28;20463;-67
2022/06/24 09:38:54;;;;;;;7.20;2.57;;;25.80;71.20;;;;;;4992678;28;20846;-68
2022/06/24 09:41:21;;;;;;;11.40;2.60;;;26.10;73.40;;;;;;4991100;28;20498;-66
2022/06/24 09:43:50;;;;;;;6.67;1.90;;;26.20;69.40;;;;;;4992204;28;20462;-67
2022/06/24 09:46:22;;;;;;;5.93;1.90;;;26.30;70.80;;;;;;4992471;28;20428;-67
2022/06/24 09:48:53;;;;;;;7.37;2.47;;;26.40;70.00;;;;;;4992368;28;20435;-66
2022/06/24 09:51:20;;;;;;;11.47;2.50;;;26.60;68.80;;;;;;4992593;28;20459;-67
2022/06/24 09:53:48;;;;;;;6.30;1.90;;;26.70;67.70;;;;;;4992437;28;20447;-67
2022/06/24 09:56:15;;;;;;;6.97;2.23;;;26.80;67.90;;;;;;4992375;28;20451;-68
2022/06/24 10:00:40;;;;;;;4.93;2.33;;;26.90;61.10;;;;;;4992313;28;20804;-70
2022/06/24 10:01:34;;;;;;;8.20;2.97;;;26.90;64.10;;;;;;4992518;28;20427;-67
2022/06/24 10:04:05;;;;;;;8.53;3.17;;;27.10;68.30;;;;;;4991184;28;20454;-67
2022/06/24 10:06:35;;;;;;;6.10;1.93;;;27.30;67.00;;;;;;4992619;28;20498;-67
2022/06/24 10:09:05;;;;;;;9.27;2.40;;;27.50;69.00;;;;;;4992479;28;20455;-67
2022/06/24 10:11:35;;;;;;;6.17;2.50;;;27.80;62.30;;;;;;4992124;28;20957;-66
2022/06/24 10:14:03;;;;;;;5.50;2.10;;;28.00;61.40;;;;;;4991469;28;20524;-66
2022/06/24 10:16:31;;;;;;;5.40;1.90;;;28.20;59.60;;;;;;4992166;28;20800;-67
2022/06/24 10:19:00;;;;;;;5.60;2.13;;;28.30;58.50;;;;;;4991827;28;20443;-67
2022/06/24 10:21:29;;;;;;;7.50;2.07;;;28.30;57.20;;;;;;4991714;28;20969;-66
2022/06/24 10:23:57;;;;;;;5.30;2.30;;;28.40;58.70;;;;;;4991848;28;21029;-67
2022/06/24 10:26:26;;;;;;;5.93;1.50;;;28.40;55.20;;;;;;4990809;28;20443;-66
2022/06/24 10:29:21;;;;;;;8.33;2.47;;;28.50;54.90;;;;;;4987267;28;20460;-66
2022/06/24 10:32:10;;;;;;;4.17;1.90;;;28.80;56.40;;;;;;4991823;28;20436;-66
2022/06/24 10:34:43;;;;;;;3.10;1.80;;;29.10;56.80;;;;;;4977098;28;20454;-66
2022/06/24 10:37:32;;;;;;;6.60;2.50;;;29.40;54.90;;;;;;4992215;28;20819;-66
2022/06/24 10:40:01;;;;;;;9.80;2.40;;;29.80;55.30;;;;;;4991606;28;21792;-69
2022/06/24 10:42:30;;;;;;;5.53;2.80;;;30.10;52.80;;;;;;4991839;28;20451;-67
2022/06/24 10:44:59;;;;;;;6.40;2.73;;;30.40;52.60;;;;;;4990996;28;20818;-67
2022/06/24 10:47:43;;;;;;;6.93;2.70;;;30.50;52.70;;;;;;4990948;28;20595;-67
2022/06/24 10:50:15;;;;;;;8.07;2.70;;;30.40;49.50;;;;;;4990766;28;20443;-67
2022/06/24 10:52:59;;;;;;;8.60;2.53;;;30.20;47.70;;;;;;4991527;28;20511;-67
2022/06/24 10:55:45;;;;;;;6.57;2.47;;;30.10;49.40;;;;;;4988405;28;20518;-66
2022/06/24 10:58:21;;;;;;;6.60;2.60;;;30.00;50.50;;;;;;4990827;28;20549;-66
2022/06/24 11:00:53;;;;;;;8.00;2.53;;;30.10;49.40;;;;;;4991257;28;20435;-66
2022/06/24 11:03:39;;;;;;;5.87;2.33;;;30.10;49.50;;;;;;4991233;28;20502;-66
2022/06/24 11:06:10;;;;;;;10.20;2.57;;;30.10;50.20;;;;;;4991725;28;20451;-66
2022/06/24 11:08:39;;;;;;;5.70;2.43;;;30.00;50.70;;;;;;4987718;28;20851;-66
2022/06/24 11:11:07;;;;;;;8.80;3.00;;;29.90;49.60;;;;;;4991372;28;20446;-66
2022/06/24 11:13:34;;;;;;;5.13;2.27;;;29.70;48.50;;;;;;4989626;28;20493;-70
2022/06/24 11:16:02;;;;;;;4.90;2.00;;;29.40;49.20;;;;;;4987077;28;20438;-67
2022/06/24 11:18:31;;;;;;;5.50;2.03;;;29.20;49.70;;;;;;4990634;28;20483;-66
2022/06/24 11:21:01;;;;;;;6.00;2.70;;;29.00;49.20;;;;;;4988943;28;20455;-66
2022/06/24 11:23:29;;;;;;;7.83;2.40;;;28.90;50.70;;;;;;4983676;28;20440;-68
2022/06/24 11:26:02;;;;;;;5.53;2.17;;;28.70;52.40;;;;;;4990894;28;20500;-67
2022/06/24 11:28:32;;;;;;;8.80;2.73;;;28.70;53.40;;;;;;4990717;28;20451;-66
2022/06/24 11:31:17;;;;;;;7.93;2.50;;;28.60;52.00;;;;;;4990877;28;20961;-69
2022/06/24 11:33:44;;;;;;;6.30;2.53;;;28.50;50.80;;;;;;4992701;28;20533;-70
2022/06/24 11:36:14;;;;;;;6.57;1.97;;;28.50;52.50;;;;;;4994634;28;20480;-67
2022/06/24 11:38:52;;;;;;;9.37;2.97;;;28.50;51.90;;;;;;4995101;28;20898;-67
2022/06/24 11:41:26;;;;;;;6.17;2.43;;;28.50;52.60;;;;;;4994445;28;20507;-68
2022/06/24 11:43:54;;;;;;;6.80;2.10;;;28.40;51.90;;;;;;4995115;28;20994;-67
2022/06/24 11:46:22;;;;;;;12.40;2.10;;;28.30;51.60;;;;;;4994186;28;20854;-66
2022/06/24 11:48:49;;;;;;;5.97;2.37;;;28.10;51.60;;;;;;4994158;28;20451;-68
2022/06/24 11:51:20;;;;;;;5.90;2.70;;;27.90;53.40;;;;;;4994877;28;20944;-66
2022/06/24 11:53:58;;;;;;;5.60;2.40;;;27.80;52.90;;;;;;4994611;28;20854;-69
2022/06/24 11:56:29;;;;;;;6.70;2.37;;;27.70;53.40;;;;;;4989963;28;20435;-67
2022/06/24 11:58:56;;;;;;;5.70;2.80;;;27.50;53.40;;;;;;4995003;28;20495;-67
2022/06/24 12:01:26;;;;;;;7.17;2.70;;;27.40;54.60;;;;;;4994471;28;20502;-66
2022/06/24 12:03:55;;;;;;;6.20;2.23;;;27.30;54.40;;;;;;4994378;28;20450;-67
2022/06/24 12:06:24;;;;;;;5.33;2.40;;;27.10;54.10;;;;;;4994457;28;20942;-68
2022/06/24 12:08:52;;;;;;;8.67;4.00;;;27.00;55.00;;;;;;4994209;28;20454;-67
2022/06/24 12:11:20;;;;;;;17.83;6.97;;;26.80;55.80;;;;;;4994017;28;20533;-67
2022/06/24 12:13:58;;;;;;;35.40;8.60;;;26.70;57.10;;;;;;4994387;28;20439;-67
2022/06/24 12:16:25;;;;;;;19.27;7.37;;;26.40;56.10;;;;;;4993680;28;20826;-68
2022/06/24 12:18:53;;;;;;;11.23;5.40;;;26.20;56.10;;;;;;4990263;28;20494;-67
2022/06/24 12:21:26;;;;;;;30.30;13.10;;;26.00;56.40;;;;;;4994427;28;20459;-66
2022/06/24 12:23:53;;;;;;;16.80;6.23;;;25.80;56.60;;;;;;4993345;28;20504;-68
2022/06/24 12:26:23;;;;;;;11.43;3.47;;;25.60;58.30;;;;;;4993657;28;20517;-66
2022/06/24 12:29:02;;;;;;;6.57;2.70;;;25.40;60.30;;;;;;4993012;28;20464;-67
2022/06/24 12:31:30;;;;;;;11.60;3.07;;;25.30;64.40;;;;;;4993402;28;20454;-67
2022/06/24 12:33:58;;;;;;;7.00;2.70;;;25.10;64.10;;;;;;4993900;28;20824;-66
2022/06/24 12:36:35;;;;;;;5.57;2.37;;;25.00;65.20;;;;;;4994271;28;20444;-66
2022/06/24 12:39:06;;;;;;;9.07;2.70;;;24.90;66.60;;;;;;4990051;28;21004;-66
2022/06/24 12:41:43;;;;;;;5.77;2.27;;;24.70;67.70;;;;;;4994108;28;20451;-66
2022/06/24 12:44:12;;;;;;;6.60;2.30;;;24.50;69.80;;;;;;4993283;28;20443;-66
2022/06/24 12:50:35;;;;;;;8.43;2.47;;;24.30;69.80;;;;;;4992642;28;20805;-65
2022/06/24 12:52:34;;;;;;;5.80;2.40;;;23.90;73.20;;;;;;4990777;28;20799;-66
2022/06/24 12:55:02;;;;;;;7.23;2.50;;;23.60;73.40;;;;;;4992365;28;20440;-68
2022/06/24 12:57:30;;;;;;;9.33;2.90;;;23.50;74.80;;;;;;4988857;28;20480;-66
2022/06/24 12:59:59;;;;;;;9.27;2.30;;;23.40;74.90;;;;;;4992159;28;21146;-66
2022/06/24 13:02:26;;;;;;;8.47;2.90;;;23.40;75.90;;;;;;4992164;28;20527;-67
2022/06/24 13:04:54;;;;;;;6.30;2.20;;;23.30;76.20;;;;;;4992527;28;20461;-66
2022/06/24 13:07:21;;;;;;;6.00;2.70;;;23.10;77.20;;;;;;4993278;28;20592;-67
2022/06/24 13:09:48;;;;;;;7.83;2.77;;;23.00;77.80;;;;;;4992986;28;20446;-67